Time;durP1;ratioP1;P1;durP2;ratioP2;P2;SDS_P1;SDS_P2;PMS_P1;PMS_P2;Temp;Humidity;BMP_temperature;BMP_pressure;BME280_temperature;BME280_humidity;BME280_pressure;Samples;Min_cycle;Max_cycle;Signal;HPM_P1;HPM_P2
2021/12/31 00:01:58;;;;;;;9.47;7.73;;;;;;;8.02;100.00;100029.06;5091409;28;20223;-77
2021/12/31 00:04:27;;;;;;;7.43;6.77;;;;;;;8.02;100.00;100029.91;5092098;28;20214;-77
2021/12/31 00:06:53;;;;;;;7.00;6.30;;;;;;;7.99;100.00;100035.03;5092163;28;20229;-76
2021/12/31 00:09:20;;;;;;;6.40;5.97;;;;;;;7.97;100.00;100041.88;5090516;28;20203;-77
2021/12/31 00:11:47;;;;;;;6.13;5.73;;;;;;;7.96;100.00;100039.31;5092475;28;20195;-77
2021/12/31 00:14:15;;;;;;;6.20;5.70;;;;;;;7.96;100.00;100039.31;5092293;28;20202;-76
2021/12/31 00:16:42;;;;;;;6.33;5.73;;;;;;;7.93;100.00;100037.66;5091144;28;20199;-78
2021/12/31 00:19:09;;;;;;;5.80;5.40;;;;;;;7.92;100.00;100038.50;5091251;28;20202;-77
2021/12/31 00:21:37;;;;;;;5.77;5.27;;;;;;;7.92;100.00;100039.34;5089772;28;20242;-77
2021/12/31 00:24:04;;;;;;;5.27;4.97;;;;;;;7.90;100.00;100045.34;5090854;28;20238;-77
2021/12/31 00:26:31;;;;;;;7.07;6.47;;;;;;;7.85;100.00;100042.00;5090798;28;20574;-77
2021/12/31 00:28:58;;;;;;;6.20;5.70;;;;;;;7.87;100.00;100041.13;5091946;28;20211;-77
2021/12/31 00:31:25;;;;;;;6.43;5.83;;;;;;;7.86;100.00;100038.56;5091392;28;20290;-77
2021/12/31 00:33:52;;;;;;;7.70;6.77;;;;;;;7.82;100.00;100042.00;5092203;28;20211;-77
2021/12/31 00:36:19;;;;;;;6.57;5.97;;;;;;;7.81;100.00;100038.63;5092512;28;20197;-77
2021/12/31 00:38:47;;;;;;;6.93;6.30;;;;;;;7.79;100.00;100036.94;5092217;28;20579;-77
2021/12/31 00:41:14;;;;;;;6.63;6.13;;;;;;;7.79;100.00;100042.03;5091916;28;20204;-77
2021/12/31 00:43:41;;;;;;;6.03;5.63;;;;;;;7.78;100.00;100035.25;5092357;28;20208;-77
2021/12/31 00:46:08;;;;;;;7.53;6.93;;;;;;;7.75;100.00;100037.84;5092046;28;20201;-77
2021/12/31 00:48:35;;;;;;;6.43;5.93;;;;;;;7.69;100.00;100018.28;5092035;28;20587;-77
2021/12/31 00:51:03;;;;;;;7.03;6.53;;;;;;;7.76;100.00;100024.19;5091745;28;20723;-77
2021/12/31 00:53:29;;;;;;;6.70;6.20;;;;;;;7.79;100.00;100035.22;5092037;28;20195;-77
2021/12/31 00:55:58;;;;;;;7.23;6.70;;;;;;;7.80;100.00;100025.88;5092668;28;20210;-77
2021/12/31 00:58:24;;;;;;;7.60;7.00;;;;;;;7.79;100.00;100031.81;5091575;28;20222;-77
2021/12/31 01:00:51;;;;;;;6.73;6.37;;;;;;;7.78;100.00;100033.56;5091491;28;20688;-77
2021/12/31 01:03:18;;;;;;;7.70;7.03;;;;;;;7.78;100.00;100036.09;5091776;28;20218;-77
2021/12/31 01:05:45;;;;;;;6.67;6.27;;;;;;;7.77;100.00;100028.44;5091709;28;20667;-77
2021/12/31 01:08:12;;;;;;;8.27;7.60;;;;;;;7.65;100.00;100008.16;5091113;28;20208;-77
2021/12/31 01:10:39;;;;;;;9.00;6.97;;;;;;;7.76;100.00;100026.75;5091235;28;20195;-76
2021/12/31 01:13:12;;;;;;;7.20;6.70;;;;;;;7.77;100.00;100023.34;5091128;28;20198;-77
2021/12/31 01:15:43;;;;;;;7.00;6.50;;;;;;;7.77;100.00;100011.44;5091173;28;20196;-77
2021/12/31 01:18:27;;;;;;;7.27;6.77;;;;;;;7.65;100.00;99997.94;5090957;28;20202;-77
2021/12/31 01:20:55;;;;;;;7.33;6.73;;;;;;;7.77;100.00;100010.59;5090359;28;20297;-77
2021/12/31 01:23:22;;;;;;;7.03;6.53;;;;;;;7.77;100.00;100005.47;5090613;28;20219;-77
2021/12/31 01:25:48;;;;;;;7.63;7.03;;;;;;;7.77;100.00;100008.88;5090242;28;20200;-77
2021/12/31 01:28:19;;;;;;;7.90;7.27;;;;;;;7.75;100.00;99995.31;5090554;28;20203;-77
2021/12/31 01:30:45;;;;;;;7.50;6.90;;;;;;;7.74;100.00;99987.66;5090654;28;20204;-77
2021/12/31 01:33:12;;;;;;;7.27;6.67;;;;;;;7.77;100.00;99995.28;5090176;28;20198;-76
2021/12/31 01:35:39;;;;;;;7.90;7.33;;;;;;;7.71;100.00;99995.31;5089742;28;20694;-77
2021/12/31 01:38:06;;;;;;;7.47;6.77;;;;;;;7.68;100.00;99992.81;5090265;28;20203;-77
2021/12/31 01:40:33;;;;;;;6.83;6.33;;;;;;;7.52;100.00;99987.00;5089715;28;20202;-77
2021/12/31 01:43:00;;;;;;;7.50;7.00;;;;;;;7.44;100.00;99995.56;5090681;28;20859;-78
2021/12/31 01:45:32;;;;;;;6.57;5.97;;;;;;;7.39;100.00;99996.47;5090630;28;20207;-77
2021/12/31 01:48:06;;;;;;;6.83;6.33;;;;;;;7.30;100.00;99995.69;5088779;28;20199;-76
2021/12/31 01:50:34;;;;;;;7.13;6.53;;;;;;;7.26;100.00;99999.09;5090284;28;20198;-77
2021/12/31 01:53:01;;;;;;;6.57;6.17;;;;;;;7.23;100.00;99984.69;5090784;28;20206;-77
2021/12/31 01:55:31;;;;;;;6.53;6.03;;;;;;;7.13;100.00;99988.16;5091070;28;20207;-77
2021/12/31 01:57:59;;;;;;;6.67;6.17;;;;;;;7.06;100.00;99986.50;5090779;28;20575;-77
2021/12/31 02:00:26;;;;;;;7.43;6.87;;;;;;;7.02;100.00;99984.81;5090415;28;20286;-77
2021/12/31 02:02:55;;;;;;;6.53;6.03;;;;;;;6.94;100.00;99978.94;5088943;28;20237;-77
2021/12/31 02:05:23;;;;;;;7.67;6.93;;;;;;;6.88;100.00;99970.47;5088731;28;20202;-77
2021/12/31 02:07:50;;;;;;;6.33;5.83;;;;;;;6.92;100.00;99978.06;5088427;28;20762;-77
2021/12/31 02:10:16;;;;;;;6.43;6.07;;;;;;;6.82;100.00;99956.06;5088171;28;20199;-77
2021/12/31 02:12:46;;;;;;;6.47;6.07;;;;;;;6.98;100.00;99977.22;5088901;28;20586;-77
2021/12/31 02:15:14;;;;;;;7.10;6.57;;;;;;;6.94;100.00;99968.75;5088443;28;20674;-77
2021/12/31 02:17:41;;;;;;;5.97;5.57;;;;;;;7.07;100.00;99983.09;5088537;28;20671;-77
2021/12/31 02:20:10;;;;;;;7.00;6.50;;;;;;;7.10;100.00;99972.88;5086399;28;20203;-77
2021/12/31 02:22:38;;;;;;;7.00;6.50;;;;;;;7.12;100.00;99970.31;5087753;28;20219;-77
2021/12/31 02:25:06;;;;;;;6.40;5.97;;;;;;;7.14;100.00;99968.59;5088007;28;20199;-77
2021/12/31 02:27:38;;;;;;;5.80;5.40;;;;;;;7.14;100.00;99977.06;5085775;28;20312;-77
2021/12/31 02:30:07;;;;;;;6.43;5.93;;;;;;;7.07;100.00;99982.25;5087107;28;20252;-77
2021/12/31 02:32:34;;;;;;;6.87;6.37;;;;;;;7.08;100.00;100002.63;5087527;28;20191;-77
2021/12/31 02:35:01;;;;;;;6.40;5.90;;;;;;;7.01;100.00;100013.69;5087892;28;20198;-77
2021/12/31 02:37:30;;;;;;;5.97;5.60;;;;;;;7.01;100.00;100023.91;5087866;28;20195;-77
2021/12/31 02:39:57;;;;;;;7.00;6.43;;;;;;;7.00;100.00;100032.41;5089701;28;20203;-77
2021/12/31 02:42:24;;;;;;;6.90;6.33;;;;;;;6.86;100.00;100024.00;5089236;28;20219;-77
2021/12/31 02:44:52;;;;;;;6.73;6.23;;;;;;;6.89;100.00;100029.06;5089769;28;20205;-77
2021/12/31 02:47:19;;;;;;;6.60;6.13;;;;;;;6.86;100.00;100024.00;5089200;28;20203;-75
2021/12/31 02:49:47;;;;;;;6.57;6.07;;;;;;;6.84;100.00;100033.34;5089633;28;20195;-77
2021/12/31 02:52:16;;;;;;;5.97;5.67;;;;;;;6.82;100.00;100028.25;5092475;28;20253;-76
2021/12/31 02:54:47;;;;;;;6.70;6.20;;;;;;;6.81;100.00;100021.47;5093611;28;20206;-77
2021/12/31 02:57:16;;;;;;;7.47;6.53;;;;;;;6.70;100.00;100013.03;5093279;28;20199;-77
2021/12/31 02:59:44;;;;;;;6.20;5.70;;;;;;;6.80;100.00;100018.94;5093404;28;20298;-77
2021/12/31 03:02:11;;;;;;;7.27;6.67;;;;;;;6.81;100.00;100023.19;5092858;28;20227;-77
2021/12/31 03:04:39;;;;;;;7.60;6.93;;;;;;;6.66;100.00;99990.13;5093373;28;20191;-77
2021/12/31 03:07:10;;;;;;;6.57;6.17;;;;;;;6.78;100.00;100015.56;5093111;28;20196;-77
2021/12/31 03:09:43;;;;;;;6.27;5.87;;;;;;;6.75;100.00;100021.47;5093185;28;20230;-76
2021/12/31 03:12:12;;;;;;;6.33;5.90;;;;;;;6.76;100.00;100032.53;5093295;28;20199;-77
2021/12/31 03:14:41;;;;;;;6.57;6.07;;;;;;;6.74;100.00;100029.16;5093142;28;20203;-77
2021/12/31 03:17:08;;;;;;;6.10;5.70;;;;;;;6.66;100.00;100030.88;5092185;28;20203;-77
2021/12/31 03:19:36;;;;;;;6.57;6.07;;;;;;;6.60;100.00;100036.84;5092350;28;20583;-77
2021/12/31 03:22:03;;;;;;;6.50;6.00;;;;;;;6.53;100.00;100044.50;5092608;28;20201;-77
2021/12/31 03:24:30;;;;;;;7.20;6.63;;;;;;;6.47;100.00;100044.53;5092731;28;20201;-76
2021/12/31 03:26:57;;;;;;;6.43;5.83;;;;;;;6.27;100.00;100052.22;5092695;28;20206;-77
2021/12/31 03:29:25;;;;;;;6.70;6.30;;;;;;;6.15;100.00;100048.03;5092764;28;20207;-76
2021/12/31 03:31:52;;;;;;;6.10;5.67;;;;;;;6.10;100.00;100049.75;5092658;28;20204;-77
2021/12/31 03:34:19;;;;;;;6.20;5.70;;;;;;;5.97;100.00;100042.97;5092738;28;20241;-76
2021/12/31 03:36:46;;;;;;;6.43;5.93;;;;;;;5.98;100.00;100064.19;5093145;28;20214;-76
2021/12/31 03:39:13;;;;;;;7.60;7.00;;;;;;;5.90;100.00;100051.47;5092331;28;20191;-77
2021/12/31 03:41:40;;;;;;;8.07;6.53;;;;;;;5.82;100.00;100048.88;5092979;28;20199;-77
2021/12/31 03:44:08;;;;;;;6.90;6.30;;;;;;;5.82;100.00;100059.06;5092577;28;20614;-77
2021/12/31 03:46:37;;;;;;;7.77;7.13;;;;;;;5.79;100.00;100059.06;5092567;28;20203;-77
2021/12/31 03:49:04;;;;;;;6.90;6.40;;;;;;;5.69;100.00;100051.44;5092226;28;20203;-77
2021/12/31 03:51:30;;;;;;;7.70;6.90;;;;;;;5.80;100.00;100077.72;5092284;28;20222;-77
2021/12/31 03:53:57;;;;;;;7.47;6.97;;;;;;;5.71;100.00;100062.47;5092296;28;20202;-77
2021/12/31 03:56:29;;;;;;;7.17;6.70;;;;;;;5.79;100.00;100084.50;5092217;28;20214;-77
2021/12/31 03:58:57;;;;;;;7.50;6.97;;;;;;;5.70;100.00;100088.75;5092659;28;20200;-76
2021/12/31 04:01:24;;;;;;;6.67;6.07;;;;;;;5.59;100.00;100080.28;5091790;28;20668;-77
2021/12/31 04:03:52;;;;;;;7.03;6.53;;;;;;;5.56;100.00;100085.34;5092265;28;20211;-76
2021/12/31 04:06:21;;;;;;;6.03;5.53;;;;;;;5.49;100.00;100078.56;5092233;28;20195;-76
2021/12/31 04:08:47;;;;;;;7.20;5.33;;;;;;;5.45;100.00;100079.41;5091434;28;20222;-76
2021/12/31 04:11:14;;;;;;;8.90;5.37;;;;;;;5.43;100.00;100079.38;5091143;28;20203;-76
2021/12/31 04:13:41;;;;;;;6.80;6.30;;;;;;;5.46;100.00;100083.66;5092123;28;20616;-76
2021/12/31 04:16:08;;;;;;;6.57;6.07;;;;;;;5.41;100.00;100086.19;5090148;28;20225;-76
2021/12/31 04:18:35;;;;;;;6.30;5.80;;;;;;;5.43;100.00;100069.22;5089603;28;20195;-76
2021/12/31 04:21:03;;;;;;;6.87;6.27;;;;;;;5.45;100.00;100057.38;5090908;28;20195;-75
2021/12/31 04:23:33;;;;;;;5.90;5.50;;;;;;;5.46;100.00;100069.22;5090559;28;20691;-76
2021/12/31 04:26:01;;;;;;;6.50;6.00;;;;;;;5.47;100.00;100085.31;5091480;28;20664;-76
2021/12/31 04:28:29;;;;;;;7.43;6.37;;;;;;;5.43;100.00;100084.47;5091274;28;20285;-76
2021/12/31 04:30:57;;;;;;;7.03;6.60;;;;;;;5.42;100.00;100087.88;5091068;28;20196;-77
2021/12/31 04:33:23;;;;;;;7.70;7.10;;;;;;;5.41;100.00;100092.94;5091376;28;20218;-76
2021/12/31 04:35:50;;;;;;;6.70;6.10;;;;;;;5.42;100.00;100102.28;5092175;28;20206;-76
2021/12/31 04:38:19;;;;;;;5.83;5.43;;;;;;;5.48;100.00;100099.75;5091183;28;20198;-76
2021/12/31 04:40:46;;;;;;;6.33;5.70;;;;;;;5.47;100.00;100093.81;5091250;28;20233;-76
2021/12/31 04:43:13;;;;;;;7.03;6.53;;;;;;;5.45;100.00;100092.97;5090862;28;20630;-76
2021/12/31 04:45:39;;;;;;;6.53;6.10;;;;;;;5.49;100.00;100094.69;5091211;28;20201;-77
2021/12/31 04:48:07;;;;;;;6.43;5.97;;;;;;;5.54;100.00;100108.22;5090661;28;20210;-70
2021/12/31 04:50:33;;;;;;;6.37;5.77;;;;;;;5.57;100.00;100102.28;5089325;28;20208;-70
2021/12/31 04:53:02;;;;;;;7.17;6.67;;;;;;;5.64;100.00;100114.19;5090991;28;20218;-70
2021/12/31 04:55:30;;;;;;;6.53;6.03;;;;;;;5.65;100.00;100121.81;5090819;28;20203;-70
2021/12/31 04:57:57;;;;;;;5.97;5.53;;;;;;;5.53;100.00;100101.44;5091159;28;20204;-70
2021/12/31 05:00:24;;;;;;;6.37;5.83;;;;;;;5.68;100.00;100115.88;5090949;28;20333;-70
2021/12/31 05:02:51;;;;;;;5.67;5.27;;;;;;;5.64;100.00;100109.94;5090552;28;20713;-71
2021/12/31 05:05:18;;;;;;;6.10;5.70;;;;;;;5.71;100.00;100110.81;5091089;28;20206;-74
2021/12/31 05:07:45;;;;;;;6.10;5.60;;;;;;;5.60;100.00;100097.22;5090782;28;20206;-75
2021/12/31 05:10:12;;;;;;;5.80;5.33;;;;;;;5.68;100.00;100115.88;5089895;28;20203;-75
2021/12/31 05:12:40;;;;;;;5.93;5.50;;;;;;;5.71;100.00;100120.97;5091048;28;20613;-74
2021/12/31 05:15:10;;;;;;;5.23;4.93;;;;;;;5.69;100.00;100128.59;5088321;28;20211;-75
2021/12/31 05:17:37;;;;;;;6.53;6.13;;;;;;;5.75;100.00;100132.84;5090775;28;20750;-75
2021/12/31 05:20:07;;;;;;;6.40;5.90;;;;;;;5.74;100.00;100120.97;5090037;28;20199;-71
2021/12/31 05:22:34;;;;;;;5.93;5.53;;;;;;;5.76;100.00;100125.22;5087866;28;20324;-72
2021/12/31 05:25:01;;;;;;;7.13;6.63;;;;;;;5.78;100.00;100132.84;5090592;28;20211;-72
2021/12/31 05:27:28;;;;;;;6.43;5.87;;;;;;;5.82;100.00;100129.44;5090623;28;20690;-71
2021/12/31 05:29:56;;;;;;;5.93;5.43;;;;;;;5.84;100.00;100122.69;5090458;28;20207;-71
2021/12/31 05:32:23;;;;;;;6.10;5.67;;;;;;;5.87;100.00;100117.63;5090290;28;20242;-72
2021/12/31 05:34:50;;;;;;;7.30;6.80;;;;;;;5.89;100.00;100115.06;5090321;28;20203;-72
2021/12/31 05:37:17;;;;;;;6.57;6.07;;;;;;;5.78;100.00;100109.97;5090920;28;20213;-76
2021/12/31 05:39:45;;;;;;;6.97;6.47;;;;;;;5.85;100.00;100113.34;5090688;28;20203;-76
2021/12/31 05:42:12;;;;;;;6.93;6.43;;;;;;;5.85;100.00;100118.44;5091564;28;20620;-76
2021/12/31 05:44:39;;;;;;;7.30;6.70;;;;;;;5.82;100.00;100134.53;5090191;28;20292;-76
2021/12/31 05:47:08;;;;;;;9.30;7.50;;;;;;;5.83;100.00;100136.25;5090668;28;20206;-76
2021/12/31 05:49:35;;;;;;;8.00;7.27;;;;;;;5.82;100.00;100139.63;5090707;28;20199;-76
2021/12/31 05:52:02;;;;;;;8.00;7.20;;;;;;;5.81;100.00;100130.31;5091306;28;20575;-76
2021/12/31 05:54:29;;;;;;;7.27;6.67;;;;;;;5.77;100.00;100133.69;5090783;28;20282;-77
2021/12/31 05:56:56;;;;;;;8.10;7.40;;;;;;;5.75;100.00;100127.78;5091217;28;20206;-76
2021/12/31 05:59:24;;;;;;;7.23;6.63;;;;;;;5.72;100.00;100122.66;5091108;28;20329;-76
2021/12/31 06:01:51;;;;;;;8.87;8.07;;;;;;;5.76;100.00;100129.44;5090867;28;20219;-75
2021/12/31 06:04:19;;;;;;;10.97;7.70;;;;;;;5.75;100.00;100130.31;5090800;28;20691;-76
2021/12/31 06:06:46;;;;;;;7.70;7.10;;;;;;;5.71;100.00;100132.00;5089701;28;20195;-77
2021/12/31 06:09:13;;;;;;;7.97;7.40;;;;;;;5.64;100.00;100119.28;5090360;28;20583;-77
2021/12/31 06:11:40;;;;;;;9.07;8.17;;;;;;;5.69;100.00;100112.47;5090740;28;20199;-76
2021/12/31 06:14:08;;;;;;;8.03;7.23;;;;;;;5.66;100.00;100117.56;5090158;28;20208;-72
2021/12/31 06:16:38;;;;;;;7.43;6.83;;;;;;;5.62;100.00;100120.97;5088795;28;20199;-72
2021/12/31 06:19:06;;;;;;;8.03;7.27;;;;;;;5.60;100.00;100115.88;5089639;28;20290;-72
2021/12/31 06:21:35;;;;;;;7.80;7.00;;;;;;;5.66;100.00;100112.47;5088353;28;20199;-71
2021/12/31 06:24:03;;;;;;;7.53;7.03;;;;;;;5.65;100.00;100108.25;5089457;28;20220;-71
2021/12/31 06:26:30;;;;;;;7.97;7.27;;;;;;;5.55;100.00;100088.75;5093385;28;20202;-72
2021/12/31 06:28:57;;;;;;;12.10;7.70;;;;;;;5.71;100.00;100116.75;5094053;28;20195;-72
2021/12/31 06:31:25;;;;;;;7.47;6.93;;;;;;;5.72;100.00;100115.88;5093434;28;20207;-72
2021/12/31 06:33:51;;;;;;;6.37;5.97;;;;;;;5.75;100.00;100117.59;5093741;28;20197;-72
2021/12/31 06:36:20;;;;;;;6.97;6.43;;;;;;;5.76;100.00;100119.28;5093808;28;20269;-72
2021/12/31 06:38:50;;;;;;;7.43;6.93;;;;;;;5.81;100.00;100138.81;5093520;28;20290;-72
2021/12/31 06:41:17;;;;;;;7.57;6.80;;;;;;;5.79;100.00;100121.81;5093643;28;20671;-72
2021/12/31 06:43:44;;;;;;;7.47;6.80;;;;;;;5.89;100.00;100136.28;5093548;28;20219;-72
2021/12/31 06:46:11;;;;;;;6.90;6.40;;;;;;;5.98;100.00;100136.28;5093136;28;20204;-72
2021/12/31 06:48:38;;;;;;;6.93;6.23;;;;;;;5.97;100.00;100154.94;5093582;28;20198;-72
2021/12/31 06:51:04;;;;;;;6.80;6.27;;;;;;;6.04;100.00;100138.81;5093188;28;20195;-72
2021/12/31 06:53:31;;;;;;;7.10;6.40;;;;;;;6.21;100.00;100154.94;5089566;28;20214;-72
2021/12/31 06:56:00;;;;;;;5.93;5.57;;;;;;;6.23;100.00;100166.00;5092609;28;20210;-72
2021/12/31 06:58:27;;;;;;;6.77;6.13;;;;;;;6.26;100.00;100167.69;5092026;28;20217;-72
2021/12/31 07:00:53;;;;;;;6.57;6.07;;;;;;;6.31;100.00;100171.06;5092529;28;20286;-72
2021/12/31 07:03:20;;;;;;;6.23;5.73;;;;;;;6.42;100.00;100171.06;5092083;28;20227;-72
2021/12/31 07:05:48;;;;;;;7.30;6.70;;;;;;;6.45;100.00;100173.59;5090070;28;20221;-72
2021/12/31 07:08:14;;;;;;;7.37;5.73;;;;;;;6.44;100.00;100171.88;5093147;28;20211;-77
2021/12/31 07:10:41;;;;;;;7.60;6.73;;;;;;;6.50;100.00;100182.06;5094090;28;20230;-76
2021/12/31 07:13:11;;;;;;;6.47;5.97;;;;;;;6.55;100.00;100188.00;5094504;28;20195;-76
2021/12/31 07:15:40;;;;;;;5.90;5.50;;;;;;;6.64;100.00;100193.94;5094084;28;20286;-68
2021/12/31 07:18:07;;;;;;;6.93;6.27;;;;;;;6.72;100.00;100193.94;5092293;28;20211;-68
2021/12/31 07:20:34;;;;;;;7.00;6.40;;;;;;;6.74;100.00;100179.50;5091112;28;20675;-67
2021/12/31 07:23:04;;;;;;;6.50;5.97;;;;;;;6.82;100.00;100180.31;5091420;28;20196;-68
2021/12/31 07:25:33;;;;;;;7.13;6.60;;;;;;;6.88;100.00;100176.03;5089043;28;20237;-67
2021/12/31 07:27:59;;;;;;;6.80;6.27;;;;;;;6.92;100.00;100176.88;5092211;28;20629;-69
2021/12/31 07:30:28;;;;;;;7.60;6.90;;;;;;;7.01;100.00;100176.84;5091735;28;20466;-68
2021/12/31 07:32:55;;;;;;;7.37;6.67;;;;;;;7.09;100.00;100185.31;5090644;28;20222;-68
2021/12/31 07:35:23;;;;;;;7.97;7.47;;;;;;;7.05;100.00;100193.84;5092284;28;20320;-68
2021/12/31 07:37:52;;;;;;;7.03;6.43;;;;;;;7.14;100.00;100196.34;5090944;28;20202;-68
2021/12/31 07:40:25;;;;;;;6.50;5.93;;;;;;;7.14;100.00;100198.91;5091826;28;20204;-68
2021/12/31 07:42:52;;;;;;;6.27;5.80;;;;;;;7.18;100.00;100200.59;5091606;28;20211;-68
2021/12/31 07:45:19;;;;;;;6.10;5.60;;;;;;;7.27;100.00;100195.44;5092089;28;20225;-68
2021/12/31 07:47:47;;;;;;;6.60;6.10;;;;;;;7.30;100.00;100205.63;5086779;28;20199;-59
2021/12/31 07:50:15;;;;;;;6.33;5.83;;;;;;;7.41;100.00;100197.94;5090179;28;20211;-60
2021/12/31 07:52:42;;;;;;;6.13;5.57;;;;;;;7.48;100.00;100204.72;5087427;28;20264;-59
2021/12/31 07:55:09;;;;;;;5.57;5.17;;;;;;;7.56;100.00;100207.25;5086000;28;20210;-60
2021/12/31 07:57:36;;;;;;;5.67;5.27;;;;;;;7.62;100.00;100217.41;5086095;28;20579;-60
2021/12/31 08:00:05;;;;;;;5.97;5.40;;;;;;;7.70;100.00;100208.00;5091028;28;20195;-60
2021/12/31 08:02:32;;;;;;;5.60;5.20;;;;;;;7.81;100.00;100196.03;5091008;28;20223;-60
2021/12/31 08:05:00;;;;;;;7.00;4.97;;;;;;;7.93;100.00;100183.19;5091489;28;20222;-60
2021/12/31 08:07:28;;;;;;;4.03;3.83;;;;;;;8.03;100.00;100189.91;5089154;28;20207;-60
2021/12/31 08:09:54;;;;;;;5.30;4.90;;;;;;;8.12;100.00;100184.72;5090896;28;20207;-60
2021/12/31 08:12:21;;;;;;;4.23;4.03;;;;;;;8.20;100.00;100198.31;5090416;28;20223;-60
2021/12/31 08:14:48;;;;;;;4.90;4.50;;;;;;;8.16;100.00;100181.31;5091130;28;20671;-60
2021/12/31 08:17:15;;;;;;;5.17;4.83;;;;;;;8.18;100.00;100194.91;5091324;28;20199;-60
2021/12/31 08:19:42;;;;;;;4.57;4.27;;;;;;;8.37;100.00;100206.69;5091429;28;20195;-60
2021/12/31 08:22:11;;;;;;;6.30;5.73;;;;;;;8.50;100.00;100206.59;5090456;28;20203;-60
2021/12/31 08:24:37;;;;;;;6.30;5.90;;;;;;;8.56;100.00;100202.28;5091064;28;20230;-60
2021/12/31 08:27:05;;;;;;;5.57;5.17;;;;;;;8.57;100.00;100192.88;5092160;28;20641;-59
2021/12/31 08:29:31;;;;;;;7.17;6.57;;;;;;;8.63;100.00;100190.28;5084214;28;20200;-60
2021/12/31 08:31:58;;;;;;;5.57;5.17;;;;;;;8.66;100.00;100182.59;5088697;28;20283;-60
2021/12/31 08:34:25;;;;;;;6.93;6.23;;;;;;;8.94;100.00;100204.47;5089544;28;20203;-60
2021/12/31 08:36:52;;;;;;;6.40;5.83;;;;;;;8.98;100.00;100211.25;5090941;28;20224;-60
2021/12/31 08:39:20;;;;;;;6.13;5.63;;;;;;;9.04;100.00;100206.06;5090716;28;20199;-60
2021/12/31 08:41:47;;;;;;;6.40;5.90;;;;;;;9.06;100.00;100209.44;5089534;28;20200;-60
2021/12/31 08:44:14;;;;;;;6.80;6.30;;;;;;;9.14;100.00;100215.31;5088603;28;20452;-75
2021/12/31 08:46:41;;;;;;;5.53;5.17;;;;;;;9.15;100.00;100209.31;5089996;28;20587;-74
2021/12/31 08:49:09;;;;;;;5.90;5.50;;;;;;;9.27;100.00;100208.34;5091269;28;20195;-74
2021/12/31 08:51:37;;;;;;;5.60;5.30;;;;;;;9.34;100.00;100205.69;5091755;28;20195;-74
2021/12/31 08:54:04;;;;;;;5.17;4.87;;;;;;;9.37;100.00;100200.53;5090431;28;20211;-74
2021/12/31 08:56:32;;;;;;;4.90;4.60;;;;;;;9.41;100.00;100197.06;5091602;28;20569;-74
2021/12/31 08:58:59;;;;;;;4.97;4.57;;;;;;;9.47;100.00;100185.88;5092113;28;20583;-74
2021/12/31 09:01:26;;;;;;;5.87;4.10;;;;;;;9.48;100.00;100185.03;5091687;28;20246;-74
2021/12/31 09:03:53;;;;;;;4.77;4.37;;;;;;;9.63;100.00;100197.63;5090628;28;20195;-74
2021/12/31 09:06:20;;;;;;;5.97;5.57;;;;;;;9.74;100.00;100182.13;5091167;28;20627;-74
2021/12/31 09:08:47;;;;;;;4.60;4.30;;;;;;;9.74;100.00;100174.44;5091822;28;20199;-75
2021/12/31 09:11:15;;;;;;;4.87;4.57;;;;;;;9.74;100.00;100179.56;5091977;28;20197;-74
2021/12/31 09:13:43;;;;;;;4.17;3.80;;;;;;;9.85;100.00;100172.56;5091562;28;20205;-74
2021/12/31 09:16:10;;;;;;;4.47;4.17;;;;;;;9.95;100.00;100174.13;5091418;28;20195;-75
2021/12/31 09:18:37;;;;;;;4.80;4.43;;;;;;;9.90;100.00;100140.91;5091530;28;20607;-74
2021/12/31 09:21:04;;;;;;;4.10;3.80;;;;;;;10.07;100.00;100167.97;5091343;28;20199;-74
2021/12/31 09:23:31;;;;;;;6.00;3.90;;;;;;;10.11;100.00;100165.34;5091359;28;20195;-74
2021/12/31 09:26:00;;;;;;;6.83;4.50;;;;;;;10.17;100.00;100149.91;5091230;28;20211;-74
2021/12/31 09:28:27;;;;;;;4.30;4.03;;;;;;;10.24;100.00;100150.63;5091454;28;20216;-74
2021/12/31 09:31:00;;;;;;;6.00;4.10;;;;;;;10.21;100.00;100143.81;5091176;28;20206;-75
2021/12/31 09:33:29;;;;;;;4.63;4.33;;;;;;;10.24;100.00;100146.34;5091418;28;20196;-74
2021/12/31 09:35:56;;;;;;;5.27;4.97;;;;;;;10.30;100.00;100133.44;5091145;28;20567;-74
2021/12/31 09:38:23;;;;;;;4.17;3.87;;;;;;;10.25;100.00;100112.16;5091211;28;20202;-74
2021/12/31 09:40:50;;;;;;;4.50;4.10;;;;;;;10.41;100.00;100125.53;5091232;28;20195;-74
2021/12/31 09:43:19;;;;;;;4.17;3.97;;;;;;;10.43;100.00;100114.41;5091172;28;20214;-74
2021/12/31 09:45:50;;;;;;;4.13;3.93;;;;;;;10.58;99.88;100117.53;5090910;28;20207;-74
2021/12/31 09:48:21;;;;;;;4.73;4.43;;;;;;;10.62;100.00;100106.38;5090821;28;20700;-74
2021/12/31 09:50:51;;;;;;;5.23;4.70;;;;;;;10.76;100.00;100099.25;5091074;28;20207;-74
2021/12/31 09:53:19;;;;;;;5.67;5.30;;;;;;;10.82;100.00;100096.56;5090972;28;20675;-74
2021/12/31 09:55:48;;;;;;;5.20;4.73;;;;;;;10.90;100.00;100100.66;5091048;28;20195;-74
2021/12/31 09:58:17;;;;;;;4.23;4.03;;;;;;;10.96;98.25;100102.25;5090996;28;20682;-74
2021/12/31 10:00:47;;;;;;;2.83;2.63;;;;;;;10.90;96.05;100082.72;5089275;28;20203;-74
2021/12/31 10:03:16;;;;;;;3.23;3.03;;;;;;;10.87;98.18;100071.66;5089067;28;20276;-74
2021/12/31 10:05:46;;;;;;;2.80;2.60;;;;;;;11.03;99.46;100078.16;5090839;28;20686;-74
2021/12/31 10:08:18;;;;;;;3.23;3.07;;;;;;;11.10;99.48;100064.34;5087807;28;20278;-74
2021/12/31 10:11:07;;;;;;;3.00;2.90;;;;;;;11.22;99.72;100068.34;5090961;28;20286;-75
2021/12/31 10:13:35;;;;;;;3.10;2.90;;;;;;;11.34;97.96;100063.78;5090674;28;20286;-74
2021/12/31 10:16:02;;;;;;;3.40;3.20;;;;;;;11.37;96.03;100068.00;5090642;28;20202;-70
2021/12/31 10:18:33;;;;;;;3.97;3.77;;;;;;;11.35;95.11;100060.34;5090460;28;20196;-71
2021/12/31 10:21:02;;;;;;;4.27;4.07;;;;;;;11.36;94.42;100072.31;5090803;28;20718;-70
2021/12/31 10:23:29;;;;;;;3.97;3.77;;;;;;;11.31;96.27;100056.16;5089641;28;20556;-70
2021/12/31 10:26:11;;;;;;;4.07;3.77;;;;;;;11.32;95.77;100057.84;5090087;28;20778;-70
2021/12/31 10:28:51;;;;;;;4.57;4.27;;;;;;;11.38;94.78;100070.53;5090476;28;20199;-70
2021/12/31 10:31:18;;;;;;;4.77;4.47;;;;;;;11.33;94.19;100062.09;5090335;28;20195;-70
2021/12/31 10:33:45;;;;;;;3.90;3.60;;;;;;;11.40;94.62;100063.66;5090705;28;20770;-70
2021/12/31 10:36:39;;;;;;;4.00;3.70;;;;;;;11.38;94.19;100055.13;5089065;28;20287;-71
2021/12/31 10:39:20;;;;;;;4.25;4.05;;;;;;;11.45;93.55;100050.69;5087361;28;20432;-67
2021/12/31 10:41:51;;;;;;;3.40;3.20;;;;;;;11.46;94.21;100034.41;5087726;28;20195;-68
2021/12/31 10:44:18;;;;;;;3.03;2.80;;;;;;;11.55;90.99;100052.16;5087332;28;20730;-68
2021/12/31 10:46:45;;;;;;;3.00;2.80;;;;;;;11.58;92.40;100042.69;5088174;28;20211;-68
2021/12/31 10:49:13;;;;;;;3.80;3.60;;;;;;;11.59;91.99;100049.50;5088928;28;20196;-68
2021/12/31 10:51:45;;;;;;;3.00;2.90;;;;;;;11.66;92.30;100046.78;5091067;28;20678;-68
2021/12/31 10:54:29;;;;;;;2.90;2.70;;;;;;;11.71;92.41;100045.81;5089204;28;20214;-68
2021/12/31 10:56:56;;;;;;;3.50;3.20;;;;;;;11.76;91.52;100030.31;5087350;28;20245;-68
2021/12/31 10:59:24;;;;;;;2.30;2.20;;;;;;;11.80;90.94;100037.03;5088669;28;20926;-68
2021/12/31 11:01:51;;;;;;;2.80;2.43;;;;;;;11.83;91.21;100032.66;5087204;28;20253;-68
2021/12/31 11:04:20;;;;;;;1.97;1.87;;;;;;;11.96;92.99;100025.47;5088192;28;20200;-68
2021/12/31 11:06:50;;;;;;;6.10;2.40;;;;;;;12.04;92.32;100031.28;5088498;28;20218;-68
2021/12/31 11:09:18;;;;;;;2.30;2.20;;;;;;;12.07;91.99;100015.78;5088693;28;20207;-68
2021/12/31 11:11:47;;;;;;;2.50;2.40;;;;;;;12.15;91.64;100005.31;5088818;28;20206;-68
2021/12/31 11:14:16;;;;;;;2.60;2.50;;;;;;;12.10;91.41;100023.41;5089729;28;20199;-68
2021/12/31 11:16:43;;;;;;;3.07;2.20;;;;;;;12.21;89.21;100033.41;5091919;28;20199;-69
2021/12/31 11:19:11;;;;;;;2.80;2.70;;;;;;;12.30;90.12;100031.44;5090955;28;20197;-69
2021/12/31 11:21:39;;;;;;;1.83;1.73;;;;;;;12.31;89.91;100030.53;5092771;28;20207;-68
2021/12/31 11:24:30;;;;;;;2.77;2.60;;;;;;;12.31;90.84;100020.25;5091880;28;20191;-68
2021/12/31 11:26:58;;;;;;;2.70;2.60;;;;;;;12.37;90.19;100022.69;5091817;28;20218;-68
2021/12/31 11:29:35;;;;;;;2.87;2.70;;;;;;;12.40;90.41;100014.88;5090405;28;20210;-68
2021/12/31 11:32:03;;;;;;;2.50;2.40;;;;;;;12.47;92.25;100015.56;5090951;28;20271;-68